Strona główna
METAR-TAF:

METAR-TAF

Lotnisko :

Port lotniczy Bornholm

Rønne, Dania

Szerokość geograficzna: 55-04N, Długość geograficzna: 014-45E, wysokość: 16 m

Aktualna obserwacja pogody

Raport powstał 29 minut temu, godzina 01:50 UTC
Wiatr 14 kt od zachód
Temperatura 18°C
Wilgotność 94%
Ciśnienie 1012 hPa
Widzialność 10 km lub więcej
słaby deszcz

METAR: EKRN 210150Z AUTO 27014KT 9999 -RA BKN068/// 18/17 Q1012

czas: 04:19 (02:19 UTC)

Prognoza

Raport powstał 8 godziny i 53 minut temu, godzina 17:26 UTC
Prognoza ważna od 20 godzina 18 UTC do 20 godzina 22 UTC
Wiatr 10 kt od wschodnio-południowy wschód
Widzialność 10 km lub więcej
Brak chmur poniżej 1500 m i brak chmur cumulonimbus

TAF: EKRN 201726Z 2018/2022 11010KT CAVOK

Obserwacja i prognoza pogody dla ponad 4000 lotnisk (raport METAR i TAF).

Dostępne stacje oznaczono żółtymi i czerwonymi punktami na mapie.

Najedź kursorem aby zobaczyć nazwę stacji.

Kliknij aby zobaczyć obserwacje i prognozy pogody.

Aby zmienić mapę: kliknij na zielony przycisk z czarnym krzyżykiem, aby powiększyć; na zielony przycisk z myślnikiem, aby pomniejszyć; na zielone strzałki, aby przejść do map sąsiednich.


METAR-TAF: